Terminal Aerodrome Forecast
Issued by NWS

Home | Current Version | Previous Version | Text Only | Print | Product List | Glossary On
Versions: 1 2 3 4 5 6 7 8 9 10 11 12 13 14 15 16
000
FTUS43 KEAX 292320
TAFSTJ
TAF
KSTJ 292320Z 3000/3024 VRB03KT P6SM SCT200
     FM301000 30002KT 3SM BR FEW250
     FM301300 27004KT P6SM SKC=

USA.gov is the U.S. government's official web portal to all federal, state and local government web resources and services.